Time;durP1;ratioP1;P1;durP2;ratioP2;P2;SDS_P1;SDS_P2;PMS_P1;PMS_P2;Temp;Humidity;BMP_temperature;BMP_pressure;BME280_temperature;BME280_humidity;BME280_pressure;Samples;Min_cycle;Max_cycle;Signal;HPM_P1;HPM_P2
2024/01/07 00:00:23;;;;;;;176.43;60.17;;;;;;;7.42;nan;99420.00;5061201;28;20507;-71
2024/01/07 00:02:53;;;;;;;158.95;57.15;;;;;;;7.36;nan;99417.13;5080732;28;20040;-71
2024/01/07 00:05:22;;;;;;;165.15;58.60;;;;;;;7.39;nan;99417.66;5084449;28;20160;-68
2024/01/07 00:07:52;;;;;;;174.93;60.38;;;;;;;7.44;nan;99412.75;5084867;28;20135;-72
2024/01/07 00:10:21;;;;;;;164.13;57.03;;;;;;;7.47;nan;99414.25;5075287;28;20413;-70
2024/01/07 00:12:52;;;;;;;176.23;63.40;;;;;;;7.39;nan;99419.47;5067518;28;20054;-73
2024/01/07 00:15:21;;;;;;;173.02;60.92;;;;;;;7.22;nan;99416.72;5066109;28;20056;-72
2024/01/07 00:17:51;;;;;;;169.55;62.15;;;;;;;7.40;nan;99414.03;5066791;28;20048;-72
2024/01/07 00:20:20;;;;;;;169.50;59.92;;;;;;;7.35;nan;99412.84;5075526;28;20124;-73
2024/01/07 00:22:49;;;;;;;184.27;65.95;;;;;;;7.27;nan;99416.25;5078249;28;20079;-73
2024/01/07 00:25:19;;;;;;;173.88;60.75;;;;;;;7.21;nan;99412.41;5083127;28;20357;-73
2024/01/07 00:27:50;;;;;;;178.40;64.15;;;;;;;7.16;nan;99413.88;5071680;28;20048;-73
2024/01/07 00:30:20;;;;;;;168.07;59.17;;;;;;;7.34;nan;99422.56;5072819;28;20047;-72
2024/01/07 00:32:51;;;;;;;173.88;62.20;;;;;;;7.40;nan;99416.66;5065343;28;20063;-73
2024/01/07 00:35:21;;;;;;;171.77;60.58;;;;;;;7.66;nan;99417.50;5051029;28;20119;-70
2024/01/07 00:37:51;;;;;;;174.57;59.70;;;;;;;7.56;nan;99422.06;5082830;28;20040;-67
2024/01/07 00:40:21;;;;;;;171.10;56.95;;;;;;;7.52;nan;99422.53;5061266;28;20040;-68
2024/01/07 00:42:52;;;;;;;187.88;61.42;;;;;;;7.47;nan;99422.16;5061007;28;20836;-68
2024/01/07 00:45:22;;;;;;;190.73;63.88;;;;;;;7.46;nan;99431.03;5081877;28;20143;-74
2024/01/07 00:47:54;;;;;;;176.57;60.67;;;;;;;7.34;nan;99435.75;5082274;28;20746;-72
2024/01/07 00:50:24;;;;;;;185.43;64.57;;;;;;;7.30;nan;99428.31;5082366;28;20072;-75
2024/01/07 00:52:53;;;;;;;192.27;63.42;;;;;;;7.30;nan;99433.59;5058022;28;20056;-73
2024/01/07 00:55:23;;;;;;;184.52;61.38;;;;;;;7.41;nan;99435.94;5051711;28;20041;-73
2024/01/07 00:57:53;;;;;;;181.07;60.13;;;;;;;7.38;nan;99437.09;5074752;28;20510;-73
2024/01/07 01:00:22;;;;;;;176.50;61.05;;;;;;;7.33;nan;99438.53;5083327;28;20136;-74
2024/01/07 01:02:52;;;;;;;162.73;58.55;;;;;;;7.21;nan;99441.41;5068163;28;20059;-73
2024/01/07 01:05:21;;;;;;;166.35;59.25;;;;;;;7.14;nan;99452.69;5071990;28;20522;-73
2024/01/07 01:07:51;;;;;;;177.05;60.75;;;;;;;7.21;nan;99459.84;5070294;28;20044;-74
2024/01/07 01:10:22;;;;;;;161.93;54.83;;;;;;;7.19;nan;99464.44;5083098;28;20052;-73
2024/01/07 01:12:53;;;;;;;175.82;59.50;;;;;;;7.19;nan;99467.06;5058617;28;20052;-72
2024/01/07 01:15:25;;;;;;;168.57;56.45;;;;;;;7.21;nan;99467.75;5084532;28;20493;-72
2024/01/07 01:17:54;;;;;;;166.77;55.90;;;;;;;7.31;nan;99472.09;5083284;28;20044;-73
2024/01/07 01:20:24;;;;;;;147.50;56.70;;;;;;;7.35;nan;99465.53;5058869;28;20599;-73
2024/01/07 01:22:53;;;;;;;152.30;54.92;;;;;;;7.37;nan;99469.69;5056474;28;20053;-73
2024/01/07 01:25:23;;;;;;;155.25;55.40;;;;;;;7.35;nan;99474.28;5082312;28;20054;-73
2024/01/07 01:27:52;;;;;;;154.90;54.83;;;;;;;7.29;nan;99477.53;5082915;28;20040;-72
2024/01/07 01:30:22;;;;;;;147.35;53.53;;;;;;;7.06;nan;99479.81;5061471;28;20169;-72
2024/01/07 01:32:51;;;;;;;157.45;55.42;;;;;;;7.12;nan;99484.47;5079431;28;20138;-73
2024/01/07 01:35:23;;;;;;;152.00;53.22;;;;;;;7.16;nan;99479.72;5066509;28;20114;-72
2024/01/07 01:37:56;;;;;;;169.15;55.63;;;;;;;7.02;nan;99488.16;5065604;28;20052;-73
2024/01/07 01:40:26;;;;;;;153.30;54.58;;;;;;;7.16;nan;99491.09;5065344;28;20969;-72
2024/01/07 01:42:56;;;;;;;163.48;59.30;;;;;;;7.16;nan;99493.72;5064164;28;20547;-72
2024/01/07 01:45:26;;;;;;;155.00;55.45;;;;;;;7.22;nan;99487.84;5067076;28;20047;-73
2024/01/07 01:47:56;;;;;;;171.93;58.40;;;;;;;7.05;nan;99483.41;5067878;28;20137;-71
2024/01/07 01:50:26;;;;;;;161.98;56.03;;;;;;;7.07;nan;99496.44;5083273;28;20054;-72
2024/01/07 01:52:56;;;;;;;164.43;59.10;;;;;;;7.08;nan;99498.09;5075935;28;20055;-72
2024/01/07 01:55:26;;;;;;;172.05;57.70;;;;;;;7.11;nan;99497.78;5067997;28;20112;-72
2024/01/07 01:57:59;;;;;;;163.68;58.20;;;;;;;7.05;nan;99503.66;5068650;28;20070;-72
2024/01/07 02:00:29;;;;;;;159.60;57.22;;;;;;;7.07;nan;99499.91;5050638;28;20040;-73
2024/01/07 02:03:00;;;;;;;164.27;57.38;;;;;;;7.10;nan;99506.66;5085625;28;20063;-72
2024/01/07 02:05:30;;;;;;;164.40;55.78;;;;;;;7.04;nan;99523.88;5063200;28;20044;-71
2024/01/07 02:07:59;;;;;;;171.35;57.28;;;;;;;6.99;nan;99528.78;5047319;28;20957;-73
2024/01/07 02:10:36;;;;;;;176.23;59.70;;;;;;;7.04;nan;99521.25;5054323;28;20517;-73
2024/01/07 02:13:08;;;;;;;170.25;58.90;;;;;;;7.16;nan;99520.06;5058389;28;20472;-71
2024/01/07 02:15:37;;;;;;;171.65;57.25;;;;;;;7.11;nan;99524.97;5080763;28;20151;-72
2024/01/07 02:18:07;;;;;;;168.52;56.95;;;;;;;7.10;nan;99519.84;5060348;28;20055;-71
2024/01/07 02:20:36;;;;;;;171.25;57.35;;;;;;;7.58;nan;99535.22;5071156;28;20068;-72
2024/01/07 02:23:06;;;;;;;170.85;55.55;;;;;;;7.49;nan;99539.63;5075527;28;20360;-72
2024/01/07 02:25:38;;;;;;;160.55;56.10;;;;;;;7.31;nan;99545.88;5057647;28;20040;-72
2024/01/07 02:28:08;;;;;;;173.40;58.88;;;;;;;7.31;nan;99541.44;5065121;28;20444;-71
2024/01/07 02:30:38;;;;;;;174.48;59.10;;;;;;;7.31;nan;99551.97;5064703;28;20067;-72
2024/01/07 02:33:08;;;;;;;161.40;55.10;;;;;;;7.16;nan;99559.59;5057937;28;20901;-71
2024/01/07 02:35:38;;;;;;;174.10;56.05;;;;;;;7.11;nan;99555.75;5086802;28;20059;-72
2024/01/07 02:38:08;;;;;;;161.98;56.58;;;;;;;7.19;nan;99572.44;5034226;28;20905;-71
2024/01/07 02:40:37;;;;;;;174.15;57.72;;;;;;;7.12;nan;99565.31;5053260;28;20056;-73
2024/01/07 02:43:08;;;;;;;163.63;58.05;;;;;;;7.26;nan;99577.94;5056794;28;20048;-71
2024/01/07 02:45:37;;;;;;;173.02;55.83;;;;;;;7.14;nan;99581.78;5085658;28;20052;-71
2024/01/07 02:48:07;;;;;;;177.75;58.55;;;;;;;6.99;nan;99586.69;5080501;28;20055;-70
2024/01/07 02:50:36;;;;;;;167.68;56.95;;;;;;;7.15;nan;99586.06;5086434;28;20078;-72
2024/01/07 02:53:08;;;;;;;164.70;55.67;;;;;;;6.99;nan;99591.16;5075717;28;20048;-72
2024/01/07 02:55:37;;;;;;;158.43;55.22;;;;;;;6.98;nan;99592.97;5067752;28;20043;-72
2024/01/07 02:58:07;;;;;;;161.50;54.05;;;;;;;7.07;nan;99602.63;5085366;28;20051;-70
2024/01/07 03:00:36;;;;;;;148.98;54.45;;;;;;;7.05;nan;99601.94;5080264;28;20048;-72
2024/01/07 03:03:06;;;;;;;148.32;52.03;;;;;;;7.05;nan;99598.47;5075580;28;20049;-72
2024/01/07 03:05:35;;;;;;;136.73;49.83;;;;;;;7.13;nan;99609.91;5066511;28;20044;-72
2024/01/07 03:08:05;;;;;;;137.98;50.05;;;;;;;7.05;nan;99607.19;5073253;28;20048;-71
2024/01/07 03:10:34;;;;;;;131.23;49.60;;;;;;;6.82;nan;99613.81;5084246;28;20750;-72
2024/01/07 03:13:05;;;;;;;126.97;46.65;;;;;;;6.94;nan;99614.47;5066095;28;20047;-72
2024/01/07 03:15:34;;;;;;;133.77;48.90;;;;;;;6.73;nan;99617.34;5083257;28;20866;-72
2024/01/07 03:18:04;;;;;;;132.48;47.72;;;;;;;6.57;nan;99625.03;5084732;28;20067;-72
2024/01/07 03:20:34;;;;;;;140.68;49.60;;;;;;;6.80;nan;99628.94;5074869;28;20048;-72
2024/01/07 03:23:04;;;;;;;118.78;46.80;;;;;;;6.87;nan;99640.56;5074603;28;20051;-71
2024/01/07 03:25:33;;;;;;;109.70;44.97;;;;;;;7.10;nan;99644.47;5068328;28;20060;-72
2024/01/07 03:28:03;;;;;;;126.43;46.90;;;;;;;7.34;nan;99649.19;5069259;28;20056;-71
2024/01/07 03:30:32;;;;;;;127.47;48.85;;;;;;;7.11;nan;99655.81;5085653;28;20136;-72
2024/01/07 03:33:02;;;;;;;116.32;47.33;;;;;;;7.41;nan;99666.03;5080258;28;20056;-71
2024/01/07 03:35:32;;;;;;;133.70;48.25;;;;;;;7.07;nan;99670.25;5084694;28;20490;-71
2024/01/07 03:38:01;;;;;;;135.93;49.50;;;;;;;7.19;nan;99671.72;5085228;28;20058;-70
2024/01/07 03:40:31;;;;;;;139.35;50.35;;;;;;;7.31;nan;99673.16;5082458;28;20058;-73
2024/01/07 03:43:01;;;;;;;133.55;48.80;;;;;;;7.10;nan;99683.97;5082197;28;20116;-72
2024/01/07 03:45:31;;;;;;;136.25;49.05;;;;;;;7.12;nan;99689.94;5089549;28;20421;-73
2024/01/07 03:48:01;;;;;;;135.85;50.00;;;;;;;7.03;nan;99703.97;5081567;28;20136;-72
2024/01/07 03:50:30;;;;;;;123.60;49.00;;;;;;;7.11;nan;99706.69;5068896;28;20083;-72
2024/01/07 03:53:00;;;;;;;141.90;52.58;;;;;;;7.38;nan;99708.50;5074586;28;20377;-72
2024/01/07 03:55:29;;;;;;;150.80;53.70;;;;;;;7.14;nan;99721.38;5064446;28;20122;-73
2024/01/07 03:57:58;;;;;;;151.48;54.17;;;;;;;7.17;nan;99721.91;5062629;28;20048;-71
2024/01/07 04:00:28;;;;;;;171.60;58.13;;;;;;;7.20;nan;99724.28;5048927;28;20375;-72
2024/01/07 04:02:57;;;;;;;160.40;55.20;;;;;;;7.38;nan;99731.38;5083504;28;20043;-72
2024/01/07 04:05:29;;;;;;;159.55;56.55;;;;;;;7.50;nan;99732.84;5082949;28;20134;-72
2024/01/07 04:08:00;;;;;;;152.60;52.15;;;;;;;7.49;nan;99737.28;5084765;28;20127;-73
2024/01/07 04:10:29;;;;;;;165.95;56.00;;;;;;;7.82;nan;99740.28;5081983;28;20484;-72
2024/01/07 04:12:59;;;;;;;172.13;57.58;;;;;;;7.65;nan;99741.91;5084810;28;20056;-76
2024/01/07 04:15:29;;;;;;;158.02;57.25;;;;;;;7.98;nan;99757.09;5076638;28;20040;-71
2024/01/07 04:18:04;;;;;;;173.55;58.78;;;;;;;8.03;nan;99760.09;5074335;28;20035;-70
2024/01/07 04:20:34;;;;;;;169.30;61.78;;;;;;;7.85;nan;99753.16;5075410;28;20052;-72
2024/01/07 04:23:04;;;;;;;174.27;61.28;;;;;;;8.09;nan;99753.41;5078622;28;20509;-69
2024/01/07 04:25:33;;;;;;;183.20;64.60;;;;;;;7.76;nan;99752.25;5076673;28;20059;-73
2024/01/07 04:28:03;;;;;;;176.35;63.58;;;;;;;7.97;nan;99760.69;5079708;28;20067;-70
2024/01/07 04:30:33;;;;;;;204.85;64.15;;;;;;;8.28;nan;99755.03;5064711;28;20662;-72
2024/01/07 04:33:03;;;;;;;184.50;64.10;;;;;;;7.96;nan;99759.06;5082766;28;20059;-73
2024/01/07 04:35:32;;;;;;;177.50;62.22;;;;;;;8.06;nan;99754.53;5083249;28;20131;-73
2024/01/07 04:38:02;;;;;;;174.50;61.67;;;;;;;8.07;nan;99753.53;5072571;28;20052;-68
2024/01/07 04:40:31;;;;;;;180.98;63.30;;;;;;;8.09;nan;99754.25;5081030;28;20040;-70
2024/01/07 04:43:01;;;;;;;176.20;62.75;;;;;;;8.36;nan;99747.25;5076662;28;20071;-72
2024/01/07 04:45:31;;;;;;;170.68;60.42;;;;;;;8.39;nan;99742.47;5066142;28;20056;-71
2024/01/07 04:48:01;;;;;;;184.75;65.55;;;;;;;8.25;nan;99750.06;5072010;28;20412;-72
2024/01/07 04:50:30;;;;;;;192.38;63.33;;;;;;;7.94;nan;99746.97;5081226;28;20726;-70
2024/01/07 04:52:59;;;;;;;170.65;55.78;;;;;;;8.26;nan;99751.72;5082046;28;20625;-70
2024/01/07 04:55:30;;;;;;;175.18;62.67;;;;;;;8.39;nan;99757.50;5079735;28;20048;-70
2024/01/07 04:58:04;;;;;;;187.15;64.60;;;;;;;8.21;nan;99752.19;5072012;28;20044;-72
2024/01/07 05:00:35;;;;;;;177.80;61.42;;;;;;;8.37;nan;99754.16;5018710;28;20052;-69
2024/01/07 05:03:05;;;;;;;174.70;60.47;;;;;;;8.48;nan;99761.84;5066456;28;20045;-69
2024/01/07 05:05:36;;;;;;;176.68;63.58;;;;;;;8.36;nan;99747.25;5051113;28;20044;-67
2024/01/07 05:08:05;;;;;;;171.63;61.50;;;;;;;8.14;nan;99746.69;5042461;28;20040;-69
2024/01/07 05:10:35;;;;;;;175.55;63.35;;;;;;;8.44;nan;99752.59;5066098;28;20072;-68
2024/01/07 05:13:06;;;;;;;186.32;68.15;;;;;;;8.34;nan;99751.84;5065332;28;20053;-68
2024/01/07 05:15:36;;;;;;;176.82;63.03;;;;;;;8.53;nan;99752.50;5067483;28;20050;-68
2024/01/07 05:18:09;;;;;;;193.75;64.88;;;;;;;8.26;nan;99752.56;5065656;28;20056;-69
2024/01/07 05:20:39;;;;;;;178.13;63.17;;;;;;;8.52;nan;99750.84;5059355;28;20368;-69
2024/01/07 05:23:08;;;;;;;174.48;64.03;;;;;;;8.58;nan;99744.13;5065261;28;20058;-68
2024/01/07 05:25:38;;;;;;;180.63;65.50;;;;;;;8.42;nan;99741.34;5061959;28;20052;-70
2024/01/07 05:28:07;;;;;;;173.77;65.18;;;;;;;8.75;nan;99743.25;5060670;28;20075;-70
2024/01/07 05:30:38;;;;;;;181.85;62.03;;;;;;;8.99;nan;99739.91;5066188;28;20056;-70
2024/01/07 05:33:07;;;;;;;173.52;61.97;;;;;;;8.72;nan;99735.59;5067191;28;20045;-69
2024/01/07 05:35:37;;;;;;;173.07;64.80;;;;;;;9.15;nan;99740.00;5063279;28;20044;-70
2024/01/07 05:38:07;;;;;;;170.82;62.95;;;;;;;9.39;nan;99740.09;5064639;28;20040;-69
2024/01/07 05:40:36;;;;;;;171.15;63.28;;;;;;;9.65;nan;99725.94;5059416;28;20121;-69
2024/01/07 05:43:05;;;;;;;171.90;63.05;;;;;;;9.59;nan;99727.44;5060018;28;20055;-69
2024/01/07 05:45:35;;;;;;;171.13;65.45;;;;;;;9.58;nan;99731.06;5063721;28;20139;-69
2024/01/07 05:48:04;;;;;;;167.07;63.25;;;;;;;9.53;nan;99729.91;5048173;28;21674;-70
2024/01/07 05:50:34;;;;;;;183.05;63.35;;;;;;;9.79;nan;99731.47;5063457;28;20669;-67
2024/01/07 05:53:04;;;;;;;170.23;61.45;;;;;;;10.02;nan;99729.03;5069306;28;20049;-70
2024/01/07 05:55:33;;;;;;;160.02;64.40;;;;;;;10.01;nan;99726.53;5065202;28;20071;-70
2024/01/07 05:58:03;;;;;;;163.88;63.03;;;;;;;10.34;nan;99720.31;5074080;28;20070;-69
2024/01/07 06:00:32;;;;;;;170.63;66.35;;;;;;;10.31;nan;99725.94;5086241;28;20052;-70
2024/01/07 06:03:01;;;;;;;170.80;64.22;;;;;;;10.52;nan;99722.78;5086626;28;20071;-69
2024/01/07 06:05:31;;;;;;;159.90;62.92;;;;;;;10.60;nan;99725.41;5085012;28;20064;-70
2024/01/07 06:08:00;;;;;;;163.07;63.05;;;;;;;10.53;nan;99727.09;5077937;28;20048;-70
2024/01/07 06:10:30;;;;;;;156.95;62.53;;;;;;;10.71;nan;99717.94;5077788;28;20097;-68
2024/01/07 06:13:00;;;;;;;162.02;63.90;;;;;;;10.84;nan;99713.97;5081093;28;20043;-68
2024/01/07 06:15:30;;;;;;;157.20;64.95;;;;;;;11.10;nan;99717.19;5081789;28;20059;-67
2024/01/07 06:17:59;;;;;;;165.60;62.75;;;;;;;11.20;nan;99720.44;5083762;28;20044;-68
2024/01/07 06:20:28;;;;;;;167.93;63.78;;;;;;;11.42;nan;99713.59;5083364;28;20048;-68
2024/01/07 06:22:58;;;;;;;164.93;66.38;;;;;;;11.58;nan;99716.97;5082470;28;20044;-67
2024/01/07 06:25:27;;;;;;;167.77;63.42;;;;;;;11.26;nan;99715.31;5082917;28;20058;-67
2024/01/07 06:27:56;;;;;;;154.75;61.65;;;;;;;10.88;nan;99707.31;5084546;28;20054;-68
2024/01/07 06:30:26;;;;;;;162.68;62.75;;;;;;;10.73;nan;99699.22;5082422;28;20119;-68
2024/01/07 06:32:56;;;;;;;158.70;64.72;;;;;;;10.81;nan;99691.25;5080253;28;20058;-69
2024/01/07 06:35:26;;;;;;;165.63;66.22;;;;;;;11.50;nan;99684.38;5076794;28;20040;-69
2024/01/07 06:37:55;;;;;;;159.10;66.47;;;;;;;11.54;nan;99680.38;5084397;28;20044;-70
2024/01/07 06:40:25;;;;;;;162.80;66.32;;;;;;;11.33;nan;99683.59;5079516;28;20044;-69
2024/01/07 06:42:56;;;;;;;161.95;64.72;;;;;;;12.13;nan;99679.63;5080980;28;20151;-69
2024/01/07 06:45:25;;;;;;;159.02;63.72;;;;;;;12.16;nan;99678.47;5076887;28;20048;-69
2024/01/07 06:47:55;;;;;;;174.43;66.55;;;;;;;12.33;nan;99682.63;5077216;28;20143;-69
2024/01/07 06:50:25;;;;;;;168.40;68.78;;;;;;;12.28;nan;99674.38;5082492;28;20056;-69
2024/01/07 06:52:54;;;;;;;163.57;65.03;;;;;;;12.18;nan;99673.78;5080057;28;20487;-69
2024/01/07 06:55:24;;;;;;;157.45;63.78;;;;;;;12.20;nan;99679.75;5082251;28;20040;-68
2024/01/07 06:57:53;;;;;;;169.07;67.10;;;;;;;12.25;nan;99666.78;5080023;28;20056;-69
2024/01/07 07:00:24;;;;;;;155.23;62.70;;;;;;;12.27;nan;99667.41;5073897;28;20091;-69
2024/01/07 07:02:53;;;;;;;163.43;66.03;;;;;;;12.04;nan;99659.47;5072821;28;20044;-68
2024/01/07 07:05:22;;;;;;;163.30;68.97;;;;;;;12.15;nan;99663.53;5051883;28;20309;-70
2024/01/07 07:07:52;;;;;;;166.93;67.18;;;;;;;12.33;nan;99668.53;5083995;28;20632;-69
2024/01/07 07:10:23;;;;;;;168.48;69.72;;;;;;;12.46;nan;99658.94;5084051;28;20136;-70
2024/01/07 07:12:52;;;;;;;161.07;68.78;;;;;;;12.35;nan;99663.84;5084760;28;20043;-67
2024/01/07 07:15:21;;;;;;;154.55;66.97;;;;;;;12.52;nan;99662.72;5076653;28;20691;-69
2024/01/07 07:17:51;;;;;;;171.90;67.82;;;;;;;12.49;nan;99649.75;5085893;28;20497;-68
2024/01/07 07:20:20;;;;;;;160.48;66.63;;;;;;;12.45;nan;99653.78;5084440;28;20392;-68
2024/01/07 07:22:50;;;;;;;159.40;66.50;;;;;;;12.59;nan;99650.34;5080963;28;20134;-69
2024/01/07 07:25:20;;;;;;;164.88;66.45;;;;;;;12.68;nan;99643.94;5079956;28;20558;-69
2024/01/07 07:27:49;;;;;;;158.25;69.60;;;;;;;12.89;nan;99644.00;5081440;28;20052;-67
2024/01/07 07:30:19;;;;;;;160.05;69.05;;;;;;;13.11;nan;99652.09;5080436;28;20152;-66
2024/01/07 07:32:48;;;;;;;172.15;71.53;;;;;;;13.10;nan;99651.22;5081928;28;20138;-67
2024/01/07 07:35:18;;;;;;;178.57;75.40;;;;;;;13.28;nan;99634.91;5072037;28;20059;-67
2024/01/07 07:37:48;;;;;;;171.75;74.43;;;;;;;13.22;nan;99641.00;5071236;28;20048;-67
2024/01/07 07:40:18;;;;;;;170.52;72.70;;;;;;;13.39;nan;99643.25;5070119;28;20794;-69
2024/01/07 07:42:48;;;;;;;169.70;73.95;;;;;;;13.18;nan;99635.22;5076797;28;20059;-69
2024/01/07 07:45:17;;;;;;;168.95;73.10;;;;;;;13.53;nan;99632.75;5075429;28;20094;-65
2024/01/07 07:47:47;;;;;;;175.88;74.47;;;;;;;13.65;nan;99625.91;5072048;28;20101;-69
2024/01/07 07:50:16;;;;;;;184.10;76.88;;;;;;;13.18;nan;99624.59;5078796;28;20058;-69
2024/01/07 07:52:46;;;;;;;174.48;77.78;;;;;;;13.17;nan;99616.78;5074514;28;20059;-67
2024/01/07 07:55:15;;;;;;;181.27;76.95;;;;;;;13.06;nan;99616.22;5082074;28;20261;-68
2024/01/07 07:57:46;;;;;;;176.45;77.97;;;;;;;13.11;nan;99613.03;5069746;28;20480;-69
2024/01/07 08:00:16;;;;;;;179.90;75.70;;;;;;;13.55;nan;99601.44;5052185;28;20083;-69
2024/01/07 08:02:46;;;;;;;187.07;80.25;;;;;;;14.04;nan;99604.97;5059729;28;20055;-70
2024/01/07 08:05:16;;;;;;;181.27;81.30;;;;;;;13.78;nan;99599.41;5054062;28;20053;-69
2024/01/07 08:07:46;;;;;;;183.20;79.40;;;;;;;13.71;nan;99590.56;5060441;28;20357;-67
2024/01/07 08:10:16;;;;;;;181.30;76.40;;;;;;;13.94;nan;99583.16;5054720;28;20067;-68
2024/01/07 08:12:45;;;;;;;178.25;74.60;;;;;;;13.82;nan;99579.38;5058078;28;20076;-68
2024/01/07 08:15:15;;;;;;;192.43;82.95;;;;;;;13.72;nan;99581.56;5058067;28;20052;-68
2024/01/07 08:17:44;;;;;;;171.90;75.55;;;;;;;13.45;nan;99575.16;5057728;28;20429;-68
2024/01/07 08:20:15;;;;;;;170.45;73.95;;;;;;;13.87;nan;99571.63;5040854;28;20052;-69
2024/01/07 08:22:44;;;;;;;180.02;78.75;;;;;;;13.97;nan;99569.47;5061057;28;20376;-67
2024/01/07 08:25:14;;;;;;;175.23;78.43;;;;;;;13.99;nan;99569.25;5048338;28;20361;-68
2024/01/07 08:27:43;;;;;;;187.02;77.30;;;;;;;14.08;nan;99560.94;5055793;28;20056;-69
2024/01/07 08:30:13;;;;;;;180.20;80.82;;;;;;;14.18;nan;99556.09;5042606;28;20131;-70
2024/01/07 08:32:43;;;;;;;177.45;76.95;;;;;;;14.26;nan;99555.94;5050436;28;20049;-68
2024/01/07 08:35:13;;;;;;;174.15;77.50;;;;;;;14.29;nan;99544.88;5057562;28;20044;-69
2024/01/07 08:37:45;;;;;;;189.20;83.43;;;;;;;14.24;nan;99539.34;5061094;28;20033;-68
2024/01/07 08:40:16;;;;;;;201.15;84.18;;;;;;;14.24;nan;99535.84;5056384;28;20055;-68
2024/01/07 08:42:46;;;;;;;175.88;79.05;;;;;;;13.94;nan;99525.38;5066197;28;20040;-68
2024/01/07 08:45:16;;;;;;;175.05;81.15;;;;;;;14.14;nan;99514.88;5063576;28;20059;-69
2024/01/07 08:47:45;;;;;;;184.80;82.65;;;;;;;14.21;nan;99520.25;5059595;28;20044;-68
2024/01/07 08:50:15;;;;;;;235.45;101.07;;;;;;;13.92;nan;99514.13;5042672;28;20037;-69
2024/01/07 08:52:46;;;;;;;249.55;118.05;;;;;;;14.04;nan;99513.56;5064650;28;20054;-68
2024/01/07 08:55:18;;;;;;;277.17;125.85;;;;;;;14.04;nan;99505.59;5066102;28;20076;-71
2024/01/07 08:57:48;;;;;;;282.75;124.68;;;;;;;13.98;nan;99501.06;5067620;28;20070;-70
2024/01/07 09:00:18;;;;;;;271.55;124.03;;;;;;;14.10;nan;99507.47;5084011;28;20454;-74
2024/01/07 09:02:48;;;;;;;272.63;127.38;;;;;;;14.24;nan;99498.56;5085273;28;20144;-68
2024/01/07 09:05:17;;;;;;;269.08;125.38;;;;;;;14.34;nan;99497.16;5086810;28;20040;-69
2024/01/07 09:07:47;;;;;;;259.67;121.18;;;;;;;14.19;nan;99491.16;5095415;27;20049;-70
2024/01/07 09:10:18;;;;;;;262.90;123.32;;;;;;;13.35;nan;99471.69;5085066;28;20126;-70
2024/01/07 09:12:49;;;;;;;251.75;119.32;;;;;;;13.91;nan;99477.03;5096989;28;20067;-70
2024/01/07 09:15:20;;;;;;;249.10;118.22;;;;;;;13.85;nan;99469.84;5091468;27;20147;-70
2024/01/07 09:17:49;;;;;;;268.63;123.32;;;;;;;13.84;nan;99474.34;5096487;28;20044;-70
2024/01/07 09:20:19;;;;;;;272.13;122.57;;;;;;;13.94;nan;99466.81;5085647;27;20044;-70
2024/01/07 09:22:49;;;;;;;272.15;123.90;;;;;;;13.98;nan;99467.25;5088030;28;20138;-70
2024/01/07 09:25:18;;;;;;;280.50;125.32;;;;;;;13.99;nan;99465.41;5089713;28;20051;-70
2024/01/07 09:27:48;;;;;;;276.90;126.00;;;;;;;14.14;nan;99466.13;5096461;28;20047;-70
2024/01/07 09:30:17;;;;;;;257.20;125.18;;;;;;;14.17;nan;99457.72;5093169;28;20131;-69
2024/01/07 09:32:47;;;;;;;268.80;125.22;;;;;;;14.00;nan;99457.22;5092349;28;20060;-70
2024/01/07 09:35:16;;;;;;;264.02;122.25;;;;;;;14.17;nan;99455.88;5085410;28;20055;-70
2024/01/07 09:37:45;;;;;;;259.38;122.55;;;;;;;14.03;nan;99448.03;5091387;28;20727;-69
2024/01/07 09:40:21;;;;;;;277.80;123.00;;;;;;;14.03;nan;99448.03;5088984;27;20358;-70
2024/01/07 09:42:51;;;;;;;263.95;123.40;;;;;;;13.62;nan;99447.97;5090414;28;20131;-69
2024/01/07 09:45:23;;;;;;;269.63;122.13;;;;;;;13.77;nan;99449.50;5088696;28;20043;-68
2024/01/07 09:47:52;;;;;;;275.38;125.90;;;;;;;13.80;nan;99432.31;5083198;28;20044;-69
2024/01/07 09:50:23;;;;;;;261.73;126.07;;;;;;;13.78;nan;99432.50;5079485;28;20056;-68
2024/01/07 09:53:02;;;;;;;269.08;121.80;;;;;;;13.43;nan;99434.31;5082423;28;20059;-69
2024/01/07 09:55:44;;;;;;;260.60;120.45;;;;;;;13.33;nan;99422.34;5081506;28;20066;-70
2024/01/07 09:58:13;;;;;;;270.17;122.97;;;;;;;13.21;nan;99432.69;5070349;28;20052;-69
2024/01/07 10:00:43;;;;;;;261.88;122.00;;;;;;;13.17;nan;99427.94;5058056;28;20045;-69
2024/01/07 10:03:13;;;;;;;250.25;122.32;;;;;;;13.19;nan;99424.06;5062658;28;20040;-68
2024/01/07 10:05:43;;;;;;;275.00;125.10;;;;;;;13.24;nan;99421.66;5058712;28;20053;-67
2024/01/07 10:08:13;;;;;;;277.17;130.32;;;;;;;13.36;nan;99424.63;5063110;28;20481;-67
2024/01/07 10:10:43;;;;;;;266.65;128.15;;;;;;;13.41;nan;99420.34;5067008;28;20487;-66
2024/01/07 10:13:12;;;;;;;270.65;128.27;;;;;;;13.31;nan;99425.22;5066550;28;20411;-66
2024/01/07 10:15:43;;;;;;;289.27;133.57;;;;;;;13.30;nan;99426.22;5062972;28;20044;-66
2024/01/07 10:18:14;;;;;;;291.88;135.77;;;;;;;13.35;nan;99417.66;5048147;28;20122;-66
2024/01/07 10:20:44;;;;;;;283.65;133.98;;;;;;;13.35;nan;99415.81;5062975;28;20110;-66
2024/01/07 10:23:19;;;;;;;296.08;134.93;;;;;;;13.23;nan;99420.00;5067686;28;20048;-65
2024/01/07 10:25:48;;;;;;;294.33;135.68;;;;;;;13.05;nan;99416.97;5062265;28;20040;-65
2024/01/07 10:28:18;;;;;;;302.08;134.13;;;;;;;13.19;nan;99416.09;5063453;28;20044;-66
2024/01/07 10:30:52;;;;;;;299.05;136.13;;;;;;;13.21;nan;99416.72;5043183;28;20057;-66
2024/01/07 10:33:25;;;;;;;274.48;129.52;;;;;;;13.19;nan;99417.94;5061788;28;20149;-68
2024/01/07 10:36:03;;;;;;;306.87;131.53;;;;;;;13.24;nan;99419.00;5061199;28;20040;-71
2024/01/07 10:38:33;;;;;;;275.35;124.90;;;;;;;13.13;nan;99418.69;5065084;28;20051;-65
2024/01/07 10:41:09;;;;;;;268.05;124.68;;;;;;;13.11;nan;99415.38;5068237;28;20071;-66
2024/01/07 10:43:41;;;;;;;267.48;122.57;;;;;;;12.86;nan;99417.59;5064407;28;20573;-70
2024/01/07 10:46:13;;;;;;;271.83;120.07;;;;;;;12.88;nan;99416.38;5066836;28;20537;-70
2024/01/07 10:49:04;;;;;;;251.75;113.95;;;;;;;12.72;nan;99411.31;5064328;28;20072;-70
2024/01/07 10:51:35;;;;;;;242.38;110.05;;;;;;;12.74;nan;99414.63;5063821;28;20036;-70
2024/01/07 10:54:08;;;;;;;224.60;105.82;;;;;;;12.73;nan;99414.81;5062489;28;20044;-70
2024/01/07 10:56:48;;;;;;;215.15;99.05;;;;;;;12.63;nan;99408.97;5062733;28;20052;-70
2024/01/07 10:59:19;;;;;;;211.38;95.60;;;;;;;12.63;nan;99411.63;5082916;28;20068;-70
2024/01/07 11:01:49;;;;;;;192.45;91.20;;;;;;;12.50;nan;99415.78;5084233;28;20036;-70
2024/01/07 11:04:24;;;;;;;187.52;86.07;;;;;;;12.29;nan;99410.44;5090631;28;20048;-70
2024/01/07 11:07:37;;;;;;;184.15;88.15;;;;;;;12.30;nan;99403.28;5069412;28;20040;-69
2024/01/07 11:10:12;;;;;;;169.40;83.35;;;;;;;12.29;nan;99397.16;5087028;28;20063;-69
2024/01/07 11:12:41;;;;;;;176.60;84.47;;;;;;;12.10;nan;99411.81;5090768;28;20124;-70
2024/01/07 11:15:12;;;;;;;160.20;82.68;;;;;;;12.16;nan;99404.97;5079693;28;20063;-69
2024/01/07 11:17:45;;;;;;;170.50;80.57;;;;;;;12.09;nan;99412.00;5079956;28;20047;-69
2024/01/07 11:20:21;;;;;;;174.73;80.60;;;;;;;11.97;nan;99400.19;5078332;28;20059;-70
2024/01/07 11:22:50;;;;;;;155.63;78.63;;;;;;;11.94;nan;99406.72;5086706;28;20063;-69
2024/01/07 11:25:31;;;;;;;156.90;78.47;;;;;;;11.91;nan;99400.94;5085170;28;20058;-69
2024/01/07 11:28:02;;;;;;;149.55;77.70;;;;;;;11.77;nan;99402.59;5061580;28;20631;-70
2024/01/07 11:30:41;;;;;;;150.30;77.55;;;;;;;11.69;nan;99403.47;4732071;28;10000283;-69
2024/01/07 11:33:13;;;;;;;163.65;79.00;;;;;;;11.78;nan;99395.44;5078680;28;20052;-71
2024/01/07 11:35:59;;;;;;;159.90;80.17;;;;;;;11.51;nan;99389.72;4730384;28;10000003;-69
2024/01/07 11:38:28;;;;;;;151.60;76.97;;;;;;;11.53;nan;99408.94;5080749;28;20125;-72
2024/01/07 11:40:59;;;;;;;158.30;80.85;;;;;;;11.61;nan;99395.59;5064009;28;20487;-72